createdAt,value
2018-05-29T00:02:25.856Z,97553.63
2018-05-29T00:04:54.146Z,97549.72
2018-05-29T00:07:22.350Z,97543.37
2018-05-29T00:09:50.643Z,97542.56
2018-05-29T00:12:19.603Z,97543.52
2018-05-29T00:14:48.611Z,97547.01
2018-05-29T00:17:17.628Z,97540.64
2018-05-29T00:19:46.633Z,97550.52
2018-05-29T00:22:15.677Z,97548.92
2018-05-29T00:24:45.436Z,97551.42
2018-05-29T00:27:13.639Z,97551.22
2018-05-29T00:29:41.939Z,97557.70
2018-05-29T00:32:11.317Z,97559.95
2018-05-29T00:34:39.563Z,97562.77
2018-05-29T00:37:07.807Z,97557.06
2018-05-29T00:39:36.072Z,97544.66
2018-05-29T00:42:04.307Z,97554.09
2018-05-29T00:44:32.554Z,97550.62
2018-05-29T00:47:00.782Z,97556.00
2018-05-29T00:49:29.041Z,97557.41
2018-05-29T00:51:57.265Z,97554.92
2018-05-29T00:54:26.284Z,97551.82
2018-05-29T00:56:54.567Z,97558.89
2018-05-29T00:59:22.807Z,97555.45
2018-05-29T01:01:51.024Z,97563.72
2018-05-29T01:04:20.022Z,97558.80
2018-05-29T01:06:48.323Z,97558.16
2018-05-29T01:09:17.326Z,97557.27
2018-05-29T01:11:45.580Z,97555.17
2018-05-29T01:14:13.823Z,97557.89
2018-05-29T01:16:42.075Z,97562.66
2018-05-29T01:19:10.339Z,97557.32
2018-05-29T01:21:38.611Z,97555.17
2018-05-29T01:24:07.619Z,97565.88
2018-05-29T01:26:36.641Z,97560.77
2018-05-29T01:29:05.621Z,97559.08
2018-05-29T01:31:33.918Z,97557.94
2018-05-29T01:34:02.919Z,97559.64
2018-05-29T01:36:31.164Z,97560.48
2018-05-29T01:38:59.420Z,97574.01
2018-05-29T01:41:28.435Z,97560.48
2018-05-29T01:43:57.451Z,97562.80
2018-05-29T01:46:25.702Z,97561.45
2018-05-29T01:48:54.707Z,97554.30
2018-05-29T01:51:23.727Z,97550.42
2018-05-29T01:53:52.705Z,97552.95
2018-05-29T01:56:20.994Z,97552.61
2018-05-29T01:58:49.227Z,97552.77
2018-05-29T02:01:17.496Z,97550.08
2018-05-29T02:03:46.499Z,97550.55
2018-05-29T02:06:15.519Z,97541.52
2018-05-29T02:08:44.485Z,97548.32
2018-05-29T02:11:13.906Z,97538.36
2018-05-29T02:13:42.156Z,97549.21
2018-05-29T02:16:10.408Z,97540.63
2018-05-29T02:18:39.433Z,97545.69
2018-05-29T02:21:07.693Z,97553.77
2018-05-29T02:23:35.927Z,97554.91
2018-05-29T02:26:04.179Z,97552.68
2018-05-29T02:28:33.183Z,97556.91
2018-05-29T02:31:02.200Z,97558.39
2018-05-29T02:33:31.206Z,97561.13
2018-05-29T02:36:00.185Z,97557.23
2018-05-29T02:38:28.465Z,97556.55
2018-05-29T02:40:56.735Z,97563.81
2018-05-29T02:43:24.975Z,97574.98
2018-05-29T02:45:53.996Z,97592.27
2018-05-29T02:48:22.237Z,97613.51
2018-05-29T02:50:50.474Z,97600.39
2018-05-29T02:53:18.702Z,97612.84
2018-05-29T02:55:46.953Z,97621.87
2018-05-29T02:58:15.250Z,97618.75
2018-05-29T03:00:43.503Z,97617.77
2018-05-29T03:03:12.502Z,97621.16
2018-05-29T03:05:41.542Z,97627.37
2018-05-29T03:08:09.815Z,97628.23
2018-05-29T03:10:39.202Z,97623.98
2018-05-29T03:13:07.454Z,97618.82
2018-05-29T03:15:35.659Z,97620.48
2018-05-29T03:18:04.727Z,97625.94
2018-05-29T03:20:32.933Z,97621.99
2018-05-29T03:23:01.223Z,97630.75
2018-05-29T03:25:29.467Z,97628.44
2018-05-29T03:27:58.659Z,97625.61
2018-05-29T03:30:26.953Z,97627.00
2018-05-29T03:32:55.234Z,97626.95
2018-05-29T03:35:23.479Z,97626.67
2018-05-29T03:37:51.702Z,97626.75
2018-05-29T03:40:20.779Z,97632.81
2018-05-29T03:42:49.034Z,97623.12
2018-05-29T03:45:18.043Z,97621.14
2018-05-29T03:47:47.036Z,97624.04
2018-05-29T03:50:16.616Z,97624.38
2018-05-29T03:52:44.875Z,97622.89
2018-05-29T03:55:13.114Z,97623.57
2018-05-29T03:57:41.376Z,97620.50
2018-05-29T04:00:09.611Z,97633.27
2018-05-29T04:02:38.624Z,97623.47
2018-05-29T04:05:07.627Z,97626.34
2018-05-29T04:07:36.651Z,97618.13
2018-05-29T04:10:04.877Z,97608.70
2018-05-29T04:12:33.106Z,97611.32
2018-05-29T04:15:01.416Z,97614.46
2018-05-29T04:17:30.433Z,97611.73
2018-05-29T04:19:59.422Z,97615.88
2018-05-29T04:22:28.445Z,97621.07
2018-05-29T04:24:56.694Z,97619.09
2018-05-29T04:27:24.954Z,97621.85
2018-05-29T04:29:53.182Z,97625.31
2018-05-29T04:32:22.198Z,97627.55
2018-05-29T04:34:51.207Z,97626.92
2018-05-29T04:37:20.826Z,97629.53
2018-05-29T04:39:49.835Z,97632.55
2018-05-29T04:42:18.871Z,97625.56
2018-05-29T04:44:47.091Z,97622.90
2018-05-29T04:47:15.377Z,97622.81
2018-05-29T04:49:43.635Z,97623.83
2018-05-29T04:52:11.934Z,97631.14
2018-05-29T04:54:40.137Z,97628.55
2018-05-29T04:57:08.409Z,97619.35
2018-05-29T04:59:36.636Z,97618.78
2018-05-29T05:02:04.886Z,97621.70
2018-05-29T05:04:33.122Z,97618.61
2018-05-29T05:07:01.370Z,97616.58
2018-05-29T05:09:30.370Z,97631.59
2018-05-29T05:11:58.671Z,97622.05
2018-05-29T05:14:28.005Z,97623.59
2018-05-29T05:16:56.248Z,97626.88
2018-05-29T05:19:24.555Z,97633.39
2018-05-29T05:21:52.795Z,97634.39
2018-05-29T05:24:21.816Z,97638.33
2018-05-29T05:26:50.832Z,97645.91
2018-05-29T05:29:19.083Z,97637.66
2018-05-29T05:31:47.297Z,97636.70
2018-05-29T05:34:15.556Z,97640.45
2018-05-29T05:36:43.825Z,97643.10
2018-05-29T05:39:12.058Z,97635.44
2018-05-29T05:41:40.327Z,97640.97
2018-05-29T05:44:08.584Z,97639.41
2018-05-29T05:46:36.840Z,97645.69
2018-05-29T05:49:05.868Z,97634.97
2018-05-29T05:51:34.110Z,97643.08
2018-05-29T05:54:03.874Z,97637.17
2018-05-29T05:56:32.111Z,97629.95
2018-05-29T05:59:00.371Z,97634.72
2018-05-29T06:01:28.616Z,97630.19
2018-05-29T06:03:57.647Z,97637.98
2018-05-29T06:06:25.898Z,97632.38
2018-05-29T06:08:54.901Z,97637.93
2018-05-29T06:11:23.895Z,97634.62
2018-05-29T06:13:52.152Z,97640.65
2018-05-29T06:16:20.435Z,97642.92
2018-05-29T06:18:49.427Z,97646.07
2018-05-29T06:21:17.680Z,97652.89
2018-05-29T06:23:45.892Z,97649.73
2018-05-29T06:26:14.176Z,97649.50
2018-05-29T06:28:43.580Z,97654.21
2018-05-29T06:31:12.590Z,97666.53
2018-05-29T06:33:41.649Z,97651.12
2018-05-29T06:36:09.858Z,97658.27
2018-05-29T06:38:38.188Z,97649.96
2018-05-29T06:41:07.194Z,97645.37
2018-05-29T06:43:35.459Z,97651.64
2018-05-29T06:46:04.467Z,97646.19
2018-05-29T06:48:33.535Z,97643.17
2018-05-29T06:51:01.773Z,97646.87
2018-05-29T06:53:30.803Z,97659.05
2018-05-29T06:55:59.051Z,97651.46
2018-05-29T06:58:27.327Z,97651.95
2018-05-29T07:00:55.604Z,97651.64
2018-05-29T07:03:23.855Z,97650.91
2018-05-29T07:05:52.107Z,97645.70
2018-05-29T07:08:21.132Z,97645.17
2018-05-29T07:10:50.162Z,97646.79
2018-05-29T07:13:18.416Z,97643.62
2018-05-29T07:15:46.675Z,97637.87
2018-05-29T07:18:14.935Z,97633.50
2018-05-29T07:20:43.183Z,97634.56
2018-05-29T07:23:12.221Z,97632.11
2018-05-29T07:25:40.463Z,97631.55
2018-05-29T07:28:09.059Z,97627.73
2018-05-29T07:30:37.705Z,97623.81
2018-05-29T07:33:06.068Z,97634.59
2018-05-29T07:35:35.130Z,97634.15
2018-05-29T07:38:03.691Z,97628.80
2018-05-29T07:40:32.228Z,97628.23
2018-05-29T07:43:01.219Z,97631.28
2018-05-29T07:45:29.493Z,97628.13
2018-05-29T07:47:57.758Z,97634.05
2018-05-29T07:50:27.539Z,97629.42
2018-05-29T07:52:55.808Z,97624.28
2018-05-29T07:55:24.085Z,97623.83
2018-05-29T07:57:52.329Z,97624.19
2018-05-29T08:00:20.576Z,97622.97
2018-05-29T08:02:48.782Z,97626.09
2018-05-29T08:05:17.851Z,97636.29
2018-05-29T08:07:46.085Z,97637.80
2018-05-29T08:10:15.847Z,97636.47
2018-05-29T08:12:44.849Z,97641.18
2018-05-29T08:15:13.883Z,97637.09
2018-05-29T08:17:42.123Z,97645.61
2018-05-29T08:20:10.387Z,97647.31
2018-05-29T08:22:39.386Z,97655.24
2018-05-29T08:25:07.671Z,97657.69
2018-05-29T08:27:35.916Z,97660.76
2018-05-29T08:30:04.935Z,97658.80
2018-05-29T08:32:33.183Z,97649.36
2018-05-29T08:35:01.464Z,97654.52
2018-05-29T08:37:29.722Z,97647.80
2018-05-29T08:39:57.997Z,97648.03
2018-05-29T08:42:26.250Z,97650.70
2018-05-29T08:44:54.502Z,97658.16
2018-05-29T08:47:22.708Z,97647.07
2018-05-29T08:49:52.140Z,97646.81
2018-05-29T08:52:20.371Z,97642.80
2018-05-29T08:54:48.635Z,97645.87
2018-05-29T08:57:17.659Z,97646.78
2018-05-29T08:59:45.883Z,97656.23
2018-05-29T09:02:14.159Z,97650.53
2018-05-29T09:04:43.224Z,97658.13
2018-05-29T09:07:12.245Z,97655.23
2018-05-29T09:09:41.268Z,97661.34
2018-05-29T09:12:09.516Z,97667.02
2018-05-29T09:14:37.825Z,97661.28
2018-05-29T09:17:06.136Z,97668.04
2018-05-29T09:19:34.396Z,97663.88
2018-05-29T09:22:03.411Z,97664.25
2018-05-29T09:24:32.443Z,97665.41
2018-05-29T09:27:00.708Z,97656.22
2018-05-29T09:29:29.721Z,97666.16
2018-05-29T09:31:58.022Z,97671.33
2018-05-29T09:34:26.245Z,97674.66
2018-05-29T09:36:54.497Z,97672.00
2018-05-29T09:39:22.743Z,97670.30
2018-05-29T09:41:50.994Z,97663.36
2018-05-29T09:44:19.227Z,97670.64
2018-05-29T09:46:47.478Z,97663.02
2018-05-29T09:49:15.725Z,97660.53
2018-05-29T09:51:45.505Z,97658.50
2018-05-29T09:54:13.744Z,97658.58
2018-05-29T09:56:41.995Z,97667.93
2018-05-29T09:59:10.173Z,97656.72
2018-05-29T10:01:39.231Z,97653.14
2018-05-29T10:04:07.500Z,97647.44
2018-05-29T10:06:36.535Z,97647.92
2018-05-29T10:09:05.697Z,97649.77
2018-05-29T10:11:34.939Z,97642.16
2018-05-29T10:14:03.178Z,97648.79
2018-05-29T10:16:31.455Z,97654.66
2018-05-29T10:18:59.703Z,97645.39
2018-05-29T10:21:28.715Z,97646.43
2018-05-29T10:23:56.988Z,97646.95
2018-05-29T10:26:25.254Z,97648.79
2018-05-29T10:28:53.495Z,97650.08
2018-05-29T10:31:21.744Z,97642.19
2018-05-29T10:33:49.997Z,97641.39
2018-05-29T10:36:18.981Z,97647.77
2018-05-29T10:38:47.315Z,97639.27
2018-05-29T10:41:15.574Z,97642.34
2018-05-29T10:43:43.815Z,97644.44
2018-05-29T10:46:12.838Z,97640.53
2018-05-29T10:48:41.076Z,97642.11
2018-05-29T10:51:09.327Z,97650.72
2018-05-29T10:53:37.584Z,97648.23
2018-05-29T10:56:06.598Z,97647.19
2018-05-29T10:58:35.605Z,97645.48
2018-05-29T11:01:05.370Z,97646.11
2018-05-29T11:03:33.606Z,97647.81
2018-05-29T11:06:01.860Z,97647.92
2018-05-29T11:08:30.859Z,97645.49
2018-05-29T11:11:00.267Z,97645.30
2018-05-29T11:13:28.477Z,97638.54
2018-05-29T11:15:57.543Z,97637.96
2018-05-29T11:18:25.780Z,97642.59
2018-05-29T11:20:54.107Z,97643.36
2018-05-29T11:23:23.131Z,97636.11
2018-05-29T11:25:51.397Z,97645.02
2018-05-29T11:28:20.407Z,97642.13
2018-05-29T11:30:49.427Z,97643.77
2018-05-29T11:33:18.443Z,97649.27
2018-05-29T11:35:46.717Z,97642.95
2018-05-29T11:38:15.719Z,97640.63
2018-05-29T11:40:43.971Z,97638.59
2018-05-29T11:43:12.228Z,97642.18
2018-05-29T11:45:40.468Z,97639.94
2018-05-29T11:48:09.500Z,97651.21
2018-05-29T11:50:37.739Z,97645.17
2018-05-29T11:53:05.996Z,97636.56
2018-05-29T11:55:34.230Z,97639.70
2018-05-29T11:58:02.482Z,97644.58
2018-05-29T12:00:30.701Z,97636.27
2018-05-29T12:02:59.729Z,97640.66
2018-05-29T12:05:28.751Z,97632.26
2018-05-29T12:07:57.027Z,97639.97
2018-05-29T12:10:26.070Z,97646.42
2018-05-29T12:12:54.325Z,97639.75
2018-05-29T12:15:23.333Z,97641.55
2018-05-29T12:17:52.354Z,97643.13
2018-05-29T12:20:21.362Z,97645.78
2018-05-29T12:22:49.619Z,97637.67
2018-05-29T12:25:17.858Z,97627.48
2018-05-29T12:27:46.117Z,97618.68
2018-05-29T12:30:15.123Z,97617.20
2018-05-29T12:32:44.149Z,97625.70
2018-05-29T12:35:12.464Z,97627.17
2018-05-29T12:37:40.754Z,97631.59
2018-05-29T12:40:08.977Z,97633.66
2018-05-29T12:42:37.268Z,97642.75
2018-05-29T12:45:06.276Z,97644.98
2018-05-29T12:47:35.260Z,97645.98
2018-05-29T12:50:04.347Z,97654.56
2018-05-29T12:52:32.639Z,97658.27
2018-05-29T12:55:00.881Z,97654.72
2018-05-29T12:57:29.908Z,97654.19
2018-05-29T12:59:58.171Z,97650.69
2018-05-29T13:02:27.199Z,97665.53
2018-05-29T13:04:55.442Z,97668.45
2018-05-29T13:07:23.702Z,97668.39
2018-05-29T13:09:51.934Z,97670.66
2018-05-29T13:12:20.963Z,97659.14
2018-05-29T13:14:49.199Z,97658.81
2018-05-29T13:17:18.971Z,97634.16
2018-05-29T13:19:47.222Z,97634.44
2018-05-29T13:22:15.480Z,97636.67
2018-05-29T13:24:43.724Z,97642.83
2018-05-29T13:27:12.729Z,97644.11
2018-05-29T13:29:41.756Z,97643.39
2018-05-29T13:32:10.007Z,97652.16
2018-05-29T13:34:38.257Z,97656.70
2018-05-29T13:37:06.498Z,97648.82
2018-05-29T13:39:35.501Z,97646.66
2018-05-29T13:42:03.760Z,97654.19
2018-05-29T13:44:31.999Z,97657.58
2018-05-29T13:47:01.023Z,97659.56
2018-05-29T13:49:29.259Z,97656.17
2018-05-29T13:51:57.524Z,97658.15
2018-05-29T13:54:25.772Z,97667.06
2018-05-29T13:56:54.021Z,97666.06
2018-05-29T13:59:22.276Z,97664.03
2018-05-29T14:01:50.709Z,97652.03
2018-05-29T14:04:20.377Z,97645.45
2018-05-29T14:06:48.646Z,97628.80
2018-05-29T14:09:17.664Z,97628.75
2018-05-29T14:11:45.903Z,97617.13
2018-05-29T14:14:14.179Z,97607.17
2018-05-29T14:16:43.141Z,97600.75
2018-05-29T14:19:11.504Z,97598.00
2018-05-29T14:21:40.535Z,97610.48
2018-05-29T14:24:08.787Z,97627.80
2018-05-29T14:26:37.086Z,97636.93
2018-05-29T14:29:05.442Z,97633.94
2018-05-29T14:31:33.710Z,97660.87
2018-05-29T14:34:02.109Z,97619.33
2018-05-29T14:36:30.439Z,97610.83
2018-05-29T14:38:58.695Z,97596.82
2018-05-29T14:41:26.963Z,97594.02
2018-05-29T14:43:55.354Z,97585.12
2018-05-29T14:46:23.502Z,97570.62
2018-05-29T14:48:51.763Z,97579.66
2018-05-29T14:51:19.999Z,97565.62
2018-05-29T14:53:49.023Z,97556.55
2018-05-29T14:56:18.027Z,97559.64
2018-05-29T14:58:47.538Z,97566.84
2018-05-29T15:01:15.842Z,97578.26
2018-05-29T15:03:44.104Z,97587.60
2018-05-29T15:06:12.353Z,97588.31
2018-05-29T15:08:40.575Z,97583.86
2018-05-29T15:11:09.631Z,97587.67
2018-05-29T15:13:37.872Z,97584.32
2018-05-29T15:16:06.107Z,97598.23
2018-05-29T15:18:34.387Z,97592.67
2018-05-29T15:21:03.367Z,97591.56
2018-05-29T15:23:33.128Z,97591.19
2018-05-29T15:26:01.405Z,97583.73
2018-05-29T15:28:30.399Z,97587.00
2018-05-29T15:30:59.739Z,97590.24
2018-05-29T15:33:28.048Z,97583.81
2018-05-29T15:35:56.251Z,97569.81
2018-05-29T15:38:25.327Z,97559.52
2018-05-29T15:40:53.568Z,97552.85
2018-05-29T15:43:21.817Z,97556.77
2018-05-29T15:45:50.050Z,97552.00
2018-05-29T15:48:19.447Z,97547.84
2018-05-29T15:50:47.693Z,97547.53
2018-05-29T15:53:15.987Z,97537.36
2018-05-29T15:55:44.214Z,97541.83
2018-05-29T15:58:13.245Z,97532.84
2018-05-29T16:00:42.253Z,97542.72
2018-05-29T16:03:11.230Z,97547.84
2018-05-29T16:05:40.233Z,97546.48
2018-05-29T16:08:09.305Z,97555.59
2018-05-29T16:10:37.539Z,97541.78
2018-05-29T16:13:05.807Z,97537.48
2018-05-29T16:15:34.050Z,97531.92
2018-05-29T16:18:03.054Z,97540.41
2018-05-29T16:20:32.034Z,97546.81
2018-05-29T16:23:00.315Z,97549.16
2018-05-29T16:25:28.567Z,97548.84
2018-05-29T16:27:56.801Z,97553.39
2018-05-29T16:30:25.070Z,97558.55
2018-05-29T16:32:53.306Z,97559.56
2018-05-29T16:35:21.558Z,97557.88
2018-05-29T16:37:49.762Z,97554.45
2018-05-29T16:40:18.047Z,97556.52
2018-05-29T16:42:46.288Z,97545.97
2018-05-29T16:45:14.552Z,97541.25
2018-05-29T16:47:42.796Z,97532.97
2018-05-29T16:50:11.061Z,97528.72
2018-05-29T16:52:39.402Z,97520.41
2018-05-29T16:55:08.518Z,97510.63
2018-05-29T16:57:37.523Z,97516.96
2018-05-29T17:00:06.549Z,97518.89
2018-05-29T17:02:34.786Z,97518.13
2018-05-29T17:05:03.043Z,97509.26
2018-05-29T17:07:31.286Z,97504.16
2018-05-29T17:10:00.336Z,97508.16
2018-05-29T17:12:28.584Z,97516.22
2018-05-29T17:14:57.607Z,97525.88
2018-05-29T17:17:25.856Z,97523.98
2018-05-29T17:19:54.118Z,97532.01
2018-05-29T17:22:22.360Z,97536.72
2018-05-29T17:24:51.406Z,97546.03
2018-05-29T17:27:19.647Z,97549.86
2018-05-29T17:29:48.636Z,97550.90
2018-05-29T17:32:17.643Z,97546.81
2018-05-29T17:34:45.941Z,97564.15
2018-05-29T17:37:14.186Z,97569.83
2018-05-29T17:39:42.448Z,97573.46
2018-05-29T17:42:10.716Z,97572.55
2018-05-29T17:44:39.744Z,97576.59
2018-05-29T17:47:08.775Z,97587.16
2018-05-29T17:49:37.031Z,97581.88
2018-05-29T17:52:06.039Z,97590.75
2018-05-29T17:54:35.068Z,97598.09
2018-05-29T17:57:03.303Z,97599.86
2018-05-29T17:59:31.572Z,97604.42
2018-05-29T18:01:59.802Z,97605.77
2018-05-29T18:04:28.831Z,97599.22
2018-05-29T18:06:57.091Z,97599.86
2018-05-29T18:09:25.369Z,97597.76
2018-05-29T18:11:53.641Z,97601.01
2018-05-29T18:14:21.890Z,97606.21
2018-05-29T18:16:50.156Z,97601.77
2018-05-29T18:19:19.178Z,97608.02
2018-05-29T18:21:48.559Z,97606.93
2018-05-29T18:24:16.814Z,97608.53
2018-05-29T18:26:45.147Z,97614.91
2018-05-29T18:29:13.348Z,97610.20
2018-05-29T18:31:42.381Z,97612.14
2018-05-29T18:34:10.634Z,97609.43
2018-05-29T18:36:39.634Z,97618.34
2018-05-29T18:39:07.938Z,97617.65
2018-05-29T18:41:36.960Z,97621.53
2018-05-29T18:44:05.223Z,97617.88
2018-05-29T18:46:34.275Z,97628.59
2018-05-29T18:49:02.622Z,97630.66
2018-05-29T18:51:30.784Z,97624.98
2018-05-29T18:53:59.839Z,97628.98
2018-05-29T18:56:28.851Z,97630.56
2018-05-29T18:58:57.131Z,97625.84
2018-05-29T19:01:25.392Z,97623.06
2018-05-29T19:03:53.637Z,97623.50
2018-05-29T19:06:21.901Z,97620.41
2018-05-29T19:08:50.175Z,97629.33
2018-05-29T19:11:19.591Z,97624.11
2018-05-29T19:13:48.624Z,97626.94
2018-05-29T19:16:16.871Z,97624.08
2018-05-29T19:18:45.118Z,97636.11
2018-05-29T19:21:14.874Z,97639.59
2018-05-29T19:23:43.930Z,97632.95
2018-05-29T19:26:12.187Z,97633.56
2018-05-29T19:28:41.223Z,97641.21
2018-05-29T19:31:09.487Z,97636.14
2018-05-29T19:33:38.494Z,97632.19
2018-05-29T19:36:07.523Z,97634.88
2018-05-29T19:38:35.760Z,97630.41
2018-05-29T19:41:04.042Z,97631.77
2018-05-29T19:43:32.284Z,97626.47
2018-05-29T19:46:00.581Z,97629.02
2018-05-29T19:48:28.835Z,97627.40
2018-05-29T19:50:57.205Z,97634.69
2018-05-29T19:53:25.424Z,97634.49
2018-05-29T19:55:55.191Z,97646.09
2018-05-29T19:58:23.482Z,97643.73
2018-05-29T20:00:52.460Z,97645.24
2018-05-29T20:03:20.704Z,97651.15
2018-05-29T20:05:48.953Z,97645.87
2018-05-29T20:08:17.199Z,97641.89
2018-05-29T20:10:46.257Z,97641.17
2018-05-29T20:13:14.496Z,97638.67
2018-05-29T20:15:44.110Z,97628.91
2018-05-29T20:18:12.367Z,97628.56
2018-05-29T20:20:40.606Z,97631.48
2018-05-29T20:23:09.591Z,97622.05
2018-05-29T20:25:37.871Z,97627.38
2018-05-29T20:28:06.904Z,97630.47
2018-05-29T20:30:35.903Z,97631.35
2018-05-29T20:33:04.941Z,97625.77
2018-05-29T20:35:33.175Z,97630.29
2018-05-29T20:38:01.445Z,97645.55
2018-05-29T20:40:29.699Z,97631.83
2018-05-29T20:42:59.131Z,97639.24
2018-05-29T20:45:27.374Z,97638.03
2018-05-29T20:47:55.638Z,97630.91
2018-05-29T20:50:23.882Z,97643.76
2018-05-29T20:52:52.910Z,97642.98
2018-05-29T20:55:21.149Z,97647.83
2018-05-29T20:57:49.402Z,97647.29
2018-05-29T21:00:17.644Z,97648.05
2018-05-29T21:02:47.413Z,97646.48
2018-05-29T21:05:15.652Z,97641.41
2018-05-29T21:07:44.694Z,97643.72
2018-05-29T21:10:12.951Z,97641.13
2018-05-29T21:12:41.969Z,97642.23
2018-05-29T21:15:10.976Z,97646.70
2018-05-29T21:17:39.447Z,97654.27
2018-05-29T21:20:07.685Z,97652.17
2018-05-29T21:22:36.783Z,97658.42
2018-05-29T21:25:05.039Z,97649.73
2018-05-29T21:27:34.069Z,97653.51
2018-05-29T21:30:02.312Z,97652.66
2018-05-29T21:32:30.567Z,97649.17
2018-05-29T21:34:58.775Z,97643.73
2018-05-29T21:37:27.851Z,97640.19
2018-05-29T21:39:56.069Z,97637.83
2018-05-29T21:42:25.131Z,97635.64
2018-05-29T21:44:53.365Z,97631.25
2018-05-29T21:47:21.634Z,97629.42
2018-05-29T21:49:49.861Z,97640.16
2018-05-29T21:52:18.106Z,97637.47
2018-05-29T21:54:46.356Z,97642.63
2018-05-29T21:57:15.330Z,97642.89
2018-05-29T21:59:44.777Z,97636.91
2018-05-29T22:02:13.746Z,97647.18
2018-05-29T22:04:42.837Z,97644.27
2018-05-29T22:07:11.074Z,97645.70
2018-05-29T22:09:40.103Z,97648.30
2018-05-29T22:12:08.352Z,97639.17
2018-05-29T22:14:36.619Z,97638.29
2018-05-29T22:17:04.870Z,97635.84
2018-05-29T22:19:33.891Z,97638.53
2018-05-29T22:22:02.142Z,97634.05
2018-05-29T22:24:30.391Z,97623.76
2018-05-29T22:26:58.634Z,97617.77
2018-05-29T22:29:27.672Z,97620.23
2018-05-29T22:31:55.923Z,97622.33
2018-05-29T22:34:24.961Z,97629.41
2018-05-29T22:36:53.252Z,97623.77
2018-05-29T22:39:21.520Z,97634.28
2018-05-29T22:41:49.759Z,97638.72
2018-05-29T22:44:18.015Z,97635.55
2018-05-29T22:46:46.262Z,97636.16
2018-05-29T22:49:14.526Z,97648.03
2018-05-29T22:51:42.784Z,97654.42
2018-05-29T22:54:11.048Z,97665.80
2018-05-29T22:56:40.803Z,97664.81
2018-05-29T22:59:09.060Z,97666.73
2018-05-29T23:01:38.080Z,97664.77
2018-05-29T23:04:06.349Z,97670.13
2018-05-29T23:06:35.356Z,97668.92
2018-05-29T23:09:04.361Z,97675.50
2018-05-29T23:11:32.652Z,97681.67
2018-05-29T23:14:00.919Z,97675.77
2018-05-29T23:16:29.187Z,97679.02
2018-05-29T23:18:58.207Z,97677.59
2018-05-29T23:21:26.480Z,97686.28
2018-05-29T23:23:54.719Z,97686.41
2018-05-29T23:26:22.975Z,97685.07
2018-05-29T23:28:51.206Z,97698.03
2018-05-29T23:31:19.461Z,97698.87
2018-05-29T23:33:47.698Z,97694.88
2018-05-29T23:36:15.963Z,97691.73
2018-05-29T23:38:44.221Z,97683.11
2018-05-29T23:41:12.480Z,97707.59
2018-05-29T23:43:40.724Z,97699.81
2018-05-29T23:46:09.749Z,97690.95
2018-05-29T23:48:37.990Z,97695.36
2018-05-29T23:51:06.256Z,97695.25
2018-05-29T23:53:34.498Z,97696.16
2018-05-29T23:56:03.523Z,97692.84
2018-05-29T23:58:31.779Z,97691.50
